Latest Weather Observations for Badgingarra

IDW60801

Issued at 6:33 pm WST Sunday 25 September 2016 (issued every 30 minutes, with the page automatically refreshed every 10 minutes)

About weather observations | Map of weather stations | Latest weather observations for WA | Other Formats
Station Details ID: 009037 Name: BADGINGARRA RESEARCH STN Lat: -30.34 Lon: 115.54 Height: 275.0 m
Data from the previous 72 hours. | See also: Recent months at Badgingarra
Date/Time
WST
Temp
°C
App
Temp
°C
Dew
Point
°C
Rel
Hum
%
Delta-T
°C
Wind Press
QNH
hPa
Press
MSL
hPa
Rain since
9am
mm
Dir  Spd
km/h
Gust
km/h
Spd
kts
Gust
kts
25/06:30pm 9.9 4.2 5.1 72 2.2 SSW 24 33 13 18 - - -
25/06:00pm 11.3 6.1 5.6 68 2.7 SSW 22 32 12 17 - - -
25/05:30pm 12.8 6.9 5.9 63 3.3 SSW 26 35 14 19 - - -
25/05:00pm 13.9 7.8 6.7 62 3.5 SSW 28 35 15 19 - - -
25/04:30pm 14.8 9.8 8.1 64 3.4 S 24 32 13 17 - - -
25/04:00pm 15.1 9.5 8.6 65 3.3 SSW 28 37 15 20 - - -
25/03:30pm 15.6 10.0 8.8 64 3.5 SSW 28 35 15 19 - - -
25/03:00pm 14.7 9.6 9.3 70 2.8 S 26 35 14 19 - - -
25/02:30pm 16.5 12.0 10.1 66 3.4 S 24 32 13 17 - - -
25/02:00pm 16.2 11.6 10.9 71 2.9 S 26 35 14 19 - - -
25/01:30pm 15.3 10.6 10.7 74 2.5 S 26 32 14 17 - - -
25/01:00pm 15.4 11.2 9.7 69 3.0 S 22 30 12 16 - - -
25/12:30pm 16.4 15.0 8.9 61 3.9 SSE 6 9 3 5 - - -
25/12:00pm 15.8 13.8 8.8 63 3.6 SW 9 19 5 10 - - -
25/11:30am 14.5 12.3 10.7 78 2.0 WSW 13 17 7 9 - - -
25/11:00am 14.7 11.8 9.7 72 2.6 SW 15 24 8 13 - - -
25/10:30am 14.6 11.9 9.0 69 2.9 S 13 24 7 13 - - -
25/10:00am 14.0 10.6 9.2 73 2.5 SSW 17 24 9 13 - - 0.0
25/09:30am 14.4 11.6 8.4 67 3.1 SW 13 22 7 12 - - 0.0
25/09:00am 14.4 12.4 10.2 76 2.2 SSW 11 17 6 9 - - -
25/04:30am 7.3 6.1 6.6 95 0.3 NNE 2 4 1 2 - - -
25/04:00am 6.9 5.3 6.2 95 0.3 NNE 4 6 2 3 - - -
25/03:30am 7.5 6.0 6.8 95 0.3 NNW 4 6 2 3 - - -
25/03:00am 7.3 5.8 6.6 95 0.3 SW 4 4 2 2 - - -
25/02:30am 6.0 4.6 5.3 95 0.3 S 2 4 1 2 - - -
25/02:00am 5.5 4.3 4.5 93 0.4 CALM 0 2 0 1 - - -
25/12:30am 3.0 1.3 2.0 93 0.4 CALM 0 0 0 0 - - 0.0
25/12:00am 4.9 2.4 3.9 93 0.4 NNE 6 7 3 4 - - 0.0
 
Date/Time
WST
Temp
°C
App
Temp
°C
Dew
Point
°C
Rel
Hum
%
Delta-T
°C
Wind Press
QNH
hPa
Press
MSL
hPa
Rain since
9am
mm
Dir  Spd
km/h
Gust
km/h
Spd
kts
Gust
kts
24/11:30pm 3.7 1.0 2.4 91 0.5 NNE 6 6 3 3 - - 0.0
24/11:00pm 4.4 2.1 2.9 90 0.6 NNE 4 6 2 3 - - 0.0
24/10:30pm 6.8 4.6 5.3 90 0.7 NNW 6 7 3 4 - - 0.0
24/10:00pm 5.2 2.5 3.7 90 0.6 NW 7 9 4 5 - - 0.0
24/09:30pm 4.5 3.0 3.0 90 0.6 CALM 0 0 0 0 - - 0.0
24/09:00pm 6.0 4.0 4.5 90 0.7 NNE 4 6 2 3 - - 0.0
24/08:30pm 7.0 4.8 5.3 89 0.8 N 6 9 3 5 - - 0.0
24/08:00pm 8.1 5.5 6.1 87 0.9 NW 9 11 5 6 - - 0.0
24/07:30pm 8.2 5.9 5.8 85 1.1 NW 7 9 4 5 - - 0.0
24/07:00pm 9.3 6.8 6.4 82 1.4 NW 9 11 5 6 - - 0.0
24/06:30pm 11.1 8.7 7.2 77 1.9 W 9 17 5 9 - - 0.0
24/06:00pm 11.6 9.2 7.1 74 2.2 W 9 17 5 9 - - 0.0
24/05:30pm 12.4 8.5 7.1 70 2.6 W 17 24 9 13 - - 0.0
24/05:00pm 12.9 8.5 6.7 66 3.0 W 19 26 10 14 - - 0.0
24/04:30pm 13.6 9.1 6.9 64 3.3 W 20 28 11 15 - - 0.0
24/04:00pm 14.0 9.8 5.9 58 3.9 WSW 17 24 9 13 - - 0.0
24/03:30pm 14.4 10.1 5.2 54 4.4 W 17 24 9 13 - - 0.0
24/03:00pm 15.4 11.0 4.8 49 5.1 WNW 17 22 9 12 - - 0.0
24/02:30pm 16.1 13.2 6.3 52 4.8 WNW 11 19 6 10 - - 0.0
24/02:00pm 15.0 11.4 5.0 51 4.8 W 13 19 7 10 - - 0.0
24/01:30pm 15.1 12.5 6.1 55 4.4 W 9 17 5 9 - - 0.0
24/01:00pm 15.1 13.1 6.1 55 4.4 WNW 6 13 3 7 - - 0.0
24/12:30pm 14.3 11.8 6.4 59 3.9 WSW 9 15 5 8 - - 0.0
24/12:00pm 14.2 10.8 5.8 57 4.1 W 13 17 7 9 - - 0.0
24/11:30am 14.3 12.1 3.5 48 5.0 SSW 4 11 2 6 - - 0.0
24/11:00am 13.7 10.0 4.3 53 4.4 WSW 13 22 7 12 - - 0.0
24/10:30am 14.0 11.2 5.1 55 4.2 N 9 20 5 11 - - 0.0
24/10:00am 13.5 11.7 5.2 57 3.9 SE 4 9 2 5 - - 0.0
24/09:30am 12.4 10.3 5.8 64 3.1 NNE 6 11 3 6 - - 0.0
24/09:00am 11.4 9.3 6.7 73 2.3 NE 7 9 4 5 - - -
24/08:30am 9.9 7.4 6.6 80 1.6 ENE 9 13 5 7 - - -
24/08:00am 8.4 6.5 6.5 88 0.9 NNE 6 7 3 4 - - -
24/07:30am 7.5 5.4 6.0 90 0.7 N 6 6 3 3 - - -
24/07:00am 7.0 5.6 5.6 91 0.6 NNE 2 6 1 3 - - -
24/06:30am 6.7 4.3 5.3 91 0.6 NE 7 9 4 5 - - -
24/06:00am 6.5 4.2 5.0 90 0.7 NE 6 7 3 4 - - -
24/05:30am 6.4 3.6 5.0 91 0.6 ENE 9 11 5 6 - - -
24/05:00am 5.8 3.3 4.6 92 0.5 NE 7 7 4 4 - - -
24/04:30am 5.3 2.9 4.1 92 0.5 N 6 6 3 3 - - -
24/04:00am 5.3 3.2 4.1 92 0.5 N 4 4 2 2 - - -
24/03:30am 5.8 4.2 4.6 92 0.5 ESE 2 4 1 2 - - -
24/03:00am 5.5 3.9 4.3 92 0.5 NE 2 4 1 2 - - -
24/02:30am 4.7 2.0 3.8 94 0.4 E 7 9 4 5 - - -
24/02:00am 4.0 2.5 3.1 94 0.4 CALM 0 0 0 0 - - -
24/01:30am 3.0 1.3 2.0 93 0.4 CALM 0 0 0 0 - - -
24/01:00am 1.4 -0.9 0.2 92 0.4 NE 2 4 1 2 - - -
24/12:30am 2.8 0.3 1.8 93 0.4 NNE 4 6 2 3 - - -
24/12:00am 3.0 1.3 2.0 93 0.4 CALM 0 0 0 0 - - -
 
Date/Time
WST
Temp
°C
App
Temp
°C
Dew
Point
°C
Rel
Hum
%
Delta-T
°C
Wind Press
QNH
hPa
Press
MSL
hPa
Rain since
9am
mm
Dir  Spd
km/h
Gust
km/h
Spd
kts
Gust
kts
23/11:00pm 3.9 1.6 2.7 92 0.5 S 4 6 2 3 - - -
23/10:30pm 3.4 0.6 2.2 92 0.5 S 6 7 3 4 - - -
23/10:00pm 4.0 1.7 2.5 90 0.6 S 4 4 2 2 - - -
23/09:30pm 5.3 3.2 3.8 90 0.6 S 4 6 2 3 - - -
23/09:00pm 5.2 3.1 3.9 91 0.6 SSW 4 4 2 2 - - -
23/08:30pm 4.3 1.4 2.7 89 0.7 S 7 9 4 5 - - -
23/08:00pm 5.2 2.5 3.5 89 0.7 SSW 7 9 4 5 - - 0.2
23/07:30pm 4.8 1.5 2.5 85 0.9 SSW 9 11 5 6 - - 0.2
23/07:00pm 7.2 3.3 3.6 78 1.6 SSW 13 17 7 9 - - 0.2
23/06:30pm 8.9 4.7 3.9 71 2.2 SSW 15 20 8 11 - - 0.2
23/06:00pm 10.2 5.2 4.4 67 2.6 SSW 20 30 11 16 - - 0.2
23/05:30pm 11.5 6.1 4.7 63 3.1 SW 22 32 12 17 - - 0.2
23/05:00pm 12.0 6.3 4.7 61 3.4 SSW 24 32 13 17 - - 0.2
23/04:30pm 12.9 7.0 5.8 62 3.4 SSW 26 33 14 18 - - 0.2
23/04:00pm 12.7 6.7 5.1 60 3.6 SSW 26 35 14 19 - - 0.2
23/03:30pm 12.8 6.2 5.9 63 3.3 SSW 30 41 16 22 - - 0.2
23/03:00pm 13.9 7.6 7.2 64 3.3 SW 30 43 16 23 - - 0.2
23/02:30pm 14.4 9.0 6.3 58 4.0 SW 24 37 13 20 - - 0.2
23/02:00pm 14.2 8.8 6.3 59 3.8 SSW 24 33 13 18 - - 0.2
23/01:30pm 14.5 8.7 6.1 57 4.1 SW 26 41 14 22 - - 0.2
23/01:00pm 15.3 9.9 7.8 61 3.8 SW 26 37 14 20 - - 0.2
23/12:30pm 13.8 8.2 8.6 71 2.7 SSW 28 37 15 20 - - 0.2
23/12:05pm 14.1 7.8 8.9 71 2.7 SSW 32 52 17 28 - - 0.2
23/12:00pm 13.5 7.2 9.0 74 2.3 SSW 32 44 17 24 - - 0.2
23/11:30am 13.2 7.6 8.7 74 2.3 SSW 28 37 15 20 - - 0.2
23/11:00am 11.3 6.7 9.6 89 0.9 SW 24 37 13 20 - - 0.2
23/10:53am 10.7 5.0 8.5 86 1.1 SW 28 48 15 26 - - 0.2
23/10:30am 12.9 8.1 8.8 76 2.1 SW 24 32 13 17 - - 0.0
23/10:00am 12.6 8.9 10.1 85 1.3 SSW 20 28 11 15 - - 0.0
23/09:30am 10.4 5.2 8.7 89 0.8 SW 26 44 14 24 - - 0.0
23/09:26am 10.8 6.6 8.4 85 1.2 SW 20 44 11 24 - - 0.0
23/09:00am 11.4 9.1 10.3 93 0.6 SSW 13 19 7 10 - - -
23/08:30am 10.1 5.8 9.2 94 0.5 SW 22 30 12 16 - - -
23/08:00am 9.8 7.9 9.2 96 0.3 SSW 9 11 5 6 - - -
23/07:30am 9.5 5.7 9.0 97 0.2 SSW 19 28 10 15 - - -
23/07:00am 9.1 6.3 8.5 96 0.3 SW 13 17 7 9 - - -
23/06:30am 8.4 4.7 8.0 97 0.2 SSW 17 26 9 14 - - -
23/06:00am 8.4 4.6 7.6 95 0.4 SSW 17 20 9 11 - - -
23/05:30am 8.7 3.7 7.9 95 0.4 SSW 24 32 13 17 - - -
23/05:00am 7.9 4.9 7.9 100 0.0 SW 13 17 7 9 - - -
23/04:30am 6.0 2.5 5.4 96 0.3 SW 13 15 7 8 - - -
23/04:00am 7.0 4.8 6.3 95 0.3 SW 7 11 4 6 - - -
23/03:30am 8.9 7.4 8.5 97 0.2 WNW 6 7 3 4 - - -
23/03:00am 9.2 7.2 8.7 97 0.2 WSW 9 13 5 7 - - -
23/02:30am 8.2 5.9 7.6 96 0.3 SW 9 11 5 6 - - -
23/02:00am 8.7 6.6 8.1 96 0.3 SW 9 11 5 6 - - -
23/01:30am 9.8 6.4 9.2 96 0.3 SW 17 24 9 13 - - -
23/01:00am 10.0 6.0 9.2 95 0.4 WSW 20 33 11 18 - - -
23/12:30am 10.1 6.7 9.3 95 0.4 SW 17 22 9 12 - - -
23/12:00am 9.8 6.3 8.9 94 0.4 WSW 17 24 9 13 - - -
 
Date/Time
WST
Temp
°C
App
Temp
°C
Dew
Point
°C
Rel
Hum
%
Delta-T
°C
Wind Press
QNH
hPa
Press
MSL
hPa
Rain since
9am
mm
Dir  Spd
km/h
Gust
km/h
Spd
kts
Gust
kts
22/11:30pm 8.7 6.1 7.6 93 0.5 W 11 13 6 7 - - -
22/11:00pm 9.5 6.7 8.6 94 0.4 SW 13 15 7 8 - - -
22/10:30pm 10.0 7.4 9.2 95 0.4 WSW 13 17 7 9 - - -
22/10:00pm 8.9 6.4 8.3 96 0.3 WSW 11 13 6 7 - - 0.8
22/09:30pm 8.1 5.7 7.2 94 0.4 SW 9 11 5 6 - - 0.8
22/09:00pm 8.6 6.3 7.5 93 0.5 SSW 9 11 5 6 - - 0.8
22/08:30pm 10.3 7.3 9.2 93 0.6 SW 15 17 8 9 - - 0.8
22/08:00pm 10.4 7.8 9.3 93 0.6 SW 13 17 7 9 - - 0.8
22/07:30pm 11.1 8.3 10.0 93 0.6 SSW 15 19 8 10 - - 0.8
22/07:00pm 11.1 8.6 9.7 91 0.7 SSW 13 19 7 10 - - 0.8

Other Formats:

Comma delimited format used in spreadsheet applications
http://www.bom.gov.au/fwo/IDW60801/IDW60801.94603.axf

JavaScript Object Notation format (JSON) in row-major order
http://www.bom.gov.au/fwo/IDW60801/IDW60801.94603.json